createdAt,value
2023-04-18T00:00:53.942Z,2.42
2023-04-18T00:05:56.387Z,3.20
2023-04-18T00:10:58.182Z,2.58
2023-04-18T00:15:59.854Z,3.20
2023-04-18T00:21:02.038Z,2.40
2023-04-18T00:26:03.860Z,2.88
2023-04-18T00:31:05.646Z,3.33
2023-04-18T00:36:07.418Z,2.35
2023-04-18T00:41:09.041Z,3.05
2023-04-18T00:46:10.946Z,2.83
2023-04-18T00:51:13.026Z,2.47
2023-04-18T00:56:14.745Z,2.53
2023-04-18T01:01:16.401Z,1.88
2023-04-18T01:06:19.912Z,2.60
2023-04-18T01:11:21.551Z,3.08
2023-04-18T01:16:23.203Z,2.78
2023-04-18T01:21:31.152Z,2.53
2023-04-18T01:26:32.714Z,2.28
2023-04-18T01:31:36.182Z,2.65
2023-04-18T01:36:38.827Z,2.80
2023-04-18T01:41:42.011Z,3.58
2023-04-18T01:46:44.550Z,2.78
2023-04-18T01:51:46.139Z,2.53
2023-04-18T01:56:48.923Z,3.33
2023-04-18T02:01:51.156Z,3.47
2023-04-18T02:06:53.590Z,3.17
2023-04-18T02:11:59.159Z,3.22
2023-04-18T02:17:00.819Z,3.20
2023-04-18T02:22:02.379Z,3.50
2023-04-18T02:27:06.106Z,2.95
2023-04-18T02:32:08.237Z,2.78
2023-04-18T02:37:09.896Z,3.42
2023-04-18T02:42:13.009Z,3.10
2023-04-18T02:47:14.556Z,2.90
2023-04-18T02:52:19.086Z,2.72
2023-04-18T02:57:20.800Z,3.58
2023-04-18T03:02:42.635Z,3.20
2023-04-18T03:07:59.737Z,3.17
2023-04-18T03:13:02.357Z,4.13
2023-04-18T03:18:05.235Z,3.33
2023-04-18T03:23:10.746Z,2.83
2023-04-18T03:28:12.311Z,3.83
2023-04-18T03:33:17.040Z,3.08
2023-04-18T03:38:20.281Z,3.10
2023-04-18T03:43:22.700Z,3.20
2023-04-18T03:48:24.298Z,3.03
2023-04-18T03:53:26.040Z,3.20
2023-04-18T03:58:30.115Z,3.60
2023-04-18T04:03:31.952Z,3.90
2023-04-18T04:08:34.035Z,3.60
2023-04-18T04:13:36.476Z,3.63
2023-04-18T04:18:38.399Z,4.20
2023-04-18T04:23:42.634Z,2.80
2023-04-18T04:28:48.527Z,2.95
2023-04-18T04:33:54.381Z,4.05
2023-04-18T04:38:56.772Z,4.40
2023-04-18T04:44:07.085Z,3.22
2023-04-18T04:49:10.971Z,3.78
2023-04-18T04:54:13.005Z,2.97
2023-04-18T04:59:15.035Z,3.40
2023-04-18T05:04:19.663Z,4.35
2023-04-18T05:09:21.593Z,3.30
2023-04-18T05:14:23.175Z,3.60
2023-04-18T05:19:24.691Z,3.95
2023-04-18T05:24:26.269Z,3.22
2023-04-18T05:29:27.792Z,3.25
2023-04-18T05:34:29.472Z,3.47
2023-04-18T05:39:31.061Z,4.45
2023-04-18T05:44:32.613Z,3.55
2023-04-18T05:49:34.154Z,4.47
2023-04-18T05:54:35.779Z,3.40
2023-04-18T05:59:38.147Z,2.70
2023-04-18T06:04:41.809Z,3.83
2023-04-18T06:09:43.888Z,2.78
2023-04-18T06:14:45.520Z,2.72
2023-04-18T06:19:47.109Z,3.60
2023-04-18T06:24:48.606Z,4.15
2023-04-18T06:29:50.130Z,2.78
2023-04-18T06:34:53.000Z,3.22
2023-04-18T06:39:54.684Z,3.20
2023-04-18T06:44:56.636Z,3.53
2023-04-18T06:49:58.124Z,3.85
2023-04-18T06:54:59.634Z,3.10
2023-04-18T07:00:01.185Z,2.30
2023-04-18T07:05:02.989Z,3.80
2023-04-18T07:10:05.411Z,3.20
2023-04-18T07:15:07.507Z,3.85
2023-04-18T07:20:09.344Z,4.57
2023-04-18T07:25:11.269Z,3.92
2023-04-18T07:30:13.392Z,4.15
2023-04-18T07:35:15.316Z,2.90
2023-04-18T07:40:17.148Z,2.50
2023-04-18T07:45:19.095Z,2.72
2023-04-18T07:50:20.686Z,2.83
2023-04-18T07:55:22.212Z,2.00
2023-04-18T08:00:24.280Z,2.55
2023-04-18T08:05:26.019Z,2.80
2023-04-18T08:10:27.684Z,2.58
2023-04-18T08:15:31.484Z,2.53
2023-04-18T08:20:35.193Z,3.00
2023-04-18T08:25:36.909Z,3.55
2023-04-18T08:30:38.550Z,2.47
2023-04-18T08:35:40.210Z,3.03
2023-04-18T08:40:43.361Z,2.67
2023-04-18T08:45:45.666Z,3.90
2023-04-18T08:50:47.660Z,3.08
2023-04-18T08:55:53.936Z,3.35
2023-04-18T09:00:55.639Z,3.30
2023-04-18T09:06:13.860Z,3.22
2023-04-18T09:11:25.937Z,3.17
2023-04-18T09:16:29.214Z,3.17
2023-04-18T09:21:32.696Z,2.95
2023-04-18T09:26:39.298Z,2.92
2023-04-18T09:32:01.173Z,3.20
2023-04-18T09:37:13.241Z,2.83
2023-04-18T09:42:14.926Z,2.03
2023-04-18T09:47:16.421Z,2.20
2023-04-18T09:52:20.437Z,2.03
2023-04-18T09:57:26.167Z,1.98
2023-04-18T10:02:33.498Z,2.22
2023-04-18T10:07:35.395Z,1.80
2023-04-18T10:12:37.798Z,2.10
2023-04-18T10:17:56.242Z,2.30
2023-04-18T10:23:31.153Z,1.30
2023-04-18T10:28:56.493Z,1.05
2023-04-18T10:39:21.818Z,1.40
2023-04-18T10:44:24.213Z,1.10
2023-04-18T10:49:29.577Z,1.10
2023-04-18T10:55:07.595Z,1.38
2023-04-18T11:00:11.786Z,1.25
2023-04-18T11:05:19.710Z,1.20
2023-04-18T11:10:24.526Z,1.30
2023-04-18T11:15:27.105Z,1.60
2023-04-18T11:20:40.859Z,1.52
2023-04-18T11:25:44.829Z,1.63
2023-04-18T11:30:46.454Z,2.55
2023-04-18T11:35:48.019Z,2.08
2023-04-18T11:40:50.939Z,2.67
2023-04-18T11:45:58.114Z,1.83
2023-04-18T11:50:59.663Z,2.22
2023-04-18T11:56:03.415Z,2.35
2023-04-18T12:01:17.284Z,2.35
2023-04-18T12:06:18.913Z,2.40
2023-04-18T12:11:22.334Z,2.15
2023-04-18T12:16:28.280Z,2.38
2023-04-18T12:21:30.150Z,2.30
2023-04-18T12:26:31.602Z,2.50
2023-04-18T12:31:33.329Z,2.97
2023-04-18T12:36:34.921Z,3.05
2023-04-18T12:41:36.744Z,2.50
2023-04-18T12:46:38.433Z,2.75
2023-04-18T12:51:40.487Z,2.45
2023-04-18T12:56:42.504Z,3.10
2023-04-18T13:01:44.052Z,2.83
2023-04-18T13:06:45.708Z,2.90
2023-04-18T13:11:49.010Z,2.50
2023-04-18T13:16:51.490Z,2.30
2023-04-18T13:21:53.260Z,2.80
2023-04-18T13:26:56.830Z,2.58
2023-04-18T13:31:58.400Z,2.55
2023-04-18T13:36:59.901Z,2.42
2023-04-18T13:42:09.788Z,1.80
2023-04-18T13:47:11.962Z,2.45
2023-04-18T13:52:13.647Z,2.35
2023-04-18T13:57:15.298Z,1.92
2023-04-18T14:02:17.195Z,1.38
2023-04-18T14:07:18.770Z,1.88
2023-04-18T14:12:20.954Z,2.10
2023-04-18T14:17:22.698Z,1.90
2023-04-18T14:22:24.443Z,1.80
2023-04-18T14:27:26.140Z,1.77
2023-04-18T14:32:28.092Z,1.55
2023-04-18T14:37:29.773Z,1.52
2023-04-18T14:42:31.704Z,1.90
2023-04-18T14:47:34.776Z,1.50
2023-04-18T14:52:36.494Z,1.55
2023-04-18T14:57:38.892Z,1.73
2023-04-18T15:02:53.797Z,1.40
2023-04-18T15:13:59.821Z,1.67
2023-04-18T15:19:53.283Z,1.58
2023-04-18T15:25:55.272Z,1.60
2023-04-18T15:31:00.070Z,2.15
2023-04-18T15:36:02.568Z,2.05
2023-04-18T15:41:06.772Z,2.25
2023-04-18T15:46:09.307Z,2.03
2023-04-18T15:51:11.015Z,1.73
2023-04-18T15:56:12.769Z,2.13
2023-04-18T16:01:18.677Z,2.20
2023-04-18T16:06:23.446Z,2.38
2023-04-18T16:11:27.912Z,2.42
2023-04-18T16:16:40.172Z,2.03
2023-04-18T16:21:42.266Z,2.10
2023-04-18T16:26:44.100Z,2.05
2023-04-18T16:31:46.676Z,2.15
2023-04-18T16:36:51.061Z,2.35
2023-04-18T16:47:25.342Z,1.98
2023-04-18T16:52:27.057Z,2.35
2023-04-18T16:57:29.333Z,2.95
2023-04-18T17:02:31.200Z,1.90
2023-04-18T17:07:32.936Z,2.08
2023-04-18T17:12:41.177Z,2.17
2023-04-18T17:17:43.997Z,2.08
2023-04-18T17:22:45.677Z,3.03
2023-04-18T17:34:37.540Z,3.25
2023-04-18T17:40:11.219Z,2.92
2023-04-18T17:52:31.783Z,2.83
2023-04-18T18:29:56.666Z,3.00
2023-04-18T18:56:10.820Z,3.05
2023-04-18T19:08:13.247Z,3.85
2023-04-18T19:13:17.904Z,2.20
2023-04-18T19:18:20.241Z,2.75
2023-04-18T19:23:23.718Z,3.08
2023-04-18T19:28:26.019Z,2.95
2023-04-18T19:33:28.179Z,3.42
2023-04-18T19:38:31.513Z,2.92
2023-04-18T19:43:38.396Z,2.90
2023-04-18T19:48:40.172Z,3.08
2023-04-18T19:53:42.087Z,3.33
2023-04-18T19:58:46.888Z,2.67
2023-04-18T20:03:52.101Z,2.90
2023-04-18T20:21:59.641Z,3.13
2023-04-18T20:27:01.843Z,2.58
2023-04-18T20:32:03.472Z,3.47
2023-04-18T20:37:09.243Z,2.53
2023-04-18T20:42:14.479Z,3.40
2023-04-18T20:47:23.761Z,3.10
2023-04-18T20:52:25.924Z,2.58
2023-04-18T20:57:27.770Z,2.53
2023-04-18T21:02:38.953Z,2.97
2023-04-18T21:07:41.816Z,2.90
2023-04-18T21:13:07.592Z,2.90
2023-04-18T21:18:11.391Z,1.85
2023-04-18T21:35:48.505Z,2.00
2023-04-18T21:40:50.319Z,2.05
2023-04-18T21:45:51.966Z,2.42
2023-04-18T21:50:57.161Z,1.55
2023-04-18T21:55:58.823Z,1.88
2023-04-18T22:13:44.563Z,1.20
2023-04-18T22:18:46.165Z,2.25
2023-04-18T22:23:47.802Z,1.70
2023-04-18T22:40:19.078Z,2.08
2023-04-18T22:45:20.863Z,2.00
2023-04-18T22:50:22.763Z,1.95
2023-04-18T22:55:24.662Z,1.20
2023-04-18T23:00:26.201Z,2.05
2023-04-18T23:05:28.613Z,2.30
2023-04-18T23:10:30.345Z,2.53
2023-04-18T23:15:32.005Z,2.28
2023-04-18T23:20:33.534Z,2.22
2023-04-18T23:25:35.162Z,2.17
2023-04-18T23:30:37.210Z,1.40
2023-04-18T23:35:39.544Z,2.00
2023-04-18T23:40:41.147Z,2.10
2023-04-18T23:45:42.879Z,1.70
2023-04-18T23:50:46.336Z,2.13
2023-04-18T23:55:50.607Z,1.92
